Allerte
Precipitazioni in corso 

Nessun fenomeno

Allerta Gelo (░C)  

Nessuna

Allerta Vento (km/h)  

Nessuna

Scarsa VisibilitÓ (m) 

Nessuna

Allerta Caldo (░C)  

Nessuna

Allerta Afa (░C-UR)  

Nessuna

Dati e Grafici Climatici 3-7 gg
L'OMTeA propone un elaborazione dei più importanti parametri meteorologici rilevati dalle stazioni che hanno aderito al progetto di monitoraggio. In questa sezione è possibile consultare i dati provenienti dalle centraline, interpretati attraverso output testuale e grafico.
Se vuoi aderire alla rete OMTeA vai alla pagina Info e leggi requisiti e vantaggi.

Stazione di Pomezia - www.pomeziameteo.it

Valori rilevati il 16/09/2019 alle ore 16:46

Temperatura atmosferica: 27.6 °C
Pressione atmosferica: 1016.2 mbar
Umidità relativa: 50 %

Altitudine: 108 metri s.l.m.
Latitudine: 41.41° N
Longitudine: 12.30° E



Entra nella rete OMTeA!. Potrai liberamente usare sul tuo sito questi grafici; info alla pagina Istruzioni.

Ultime 50 rilevazioni
Orario Temp
°C
Rugiada
°C
Prec.
mm
Press.
mbar
Umidità
%
Int. vento
km/h
Dir.
vento
16:46 - 16/09 27.6 16.2 0 1016.20 50 0 --
16:30 - 16/09 27.9 15.5 0 1016.30 47 0 --
16:15 - 16/09 27.9 15.5 0 1016.40 47 0 --
16:00 - 16/09 28.1 16.7 0 1016.40 50 0 --
15:45 - 16/09 28.3 16.2 0 1016.40 48 0 --
15:30 - 16/09 28.2 17.1 0 1016.50 51 1.6 NE
15:15 - 16/09 27.9 17.4 0 1016.80 53 1.6 SSO
15:00 - 16/09 28.1 18.5 0 1016.90 56 0 --
14:45 - 16/09 28.0 18.7 0 1017.00 57 0 --
14:30 - 16/09 28.1 18.8 0 1017.20 57 0 --
14:15 - 16/09 28.2 17.4 0 1017.20 52 0 --
14:00 - 16/09 28.6 17.5 0 1017.30 51 0 --
13:45 - 16/09 28.6 17.1 0 1017.40 50 0 --
13:30 - 16/09 28.7 17.9 0 1017.70 52 6.4 S
13:15 - 16/09 28.8 16.7 0 1017.80 48 0 --
13:00 - 16/09 28.7 16.6 0 1017.90 48 0 --
12:45 - 16/09 28.8 16.7 0 1018.00 48 0 --
12:30 - 16/09 28.6 16.8 0 1018.10 49 0 --
12:15 - 16/09 28.2 17.4 0 1018.20 52 0 --
12:00 - 16/09 28.2 18.0 0 1018.20 54 0 --
11:45 - 16/09 28.3 18.7 0 1018.20 56 0 --
11:30 - 16/09 27.7 19.2 0 1018.20 60 0 --
11:15 - 16/09 27.1 18.9 0 1018.20 61 0 --
11:00 - 16/09 27.1 18.4 0 1018.20 59 0 --
10:45 - 16/09 26.3 18.7 0 1018.30 63 0 --
10:30 - 16/09 25.9 18.8 0 1018.30 65 1.6 S
10:15 - 16/09 25.6 19.5 0 1018.40 69 0 --
10:00 - 16/09 25.1 19.7 0 1018.40 72 8.0 SSE
09:45 - 16/09 24.9 19.5 0 1018.40 72 0 --
09:30 - 16/09 24.2 18.8 0 1018.40 72 0 --
09:15 - 16/09 24.2 18.8 0 1018.30 72 0 --
09:00 - 16/09 23.8 18.4 0 1018.20 72 0 --
08:45 - 16/09 23.4 18.1 0 1018.20 72 0 --
08:30 - 16/09 22.9 18.2 0 1018.10 75 3.2 SE
08:15 - 16/09 21.9 17.3 0 1018.10 75 0 --
08:00 - 16/09 21.3 16.5 0 1018.10 74 4.8 E
07:45 - 16/09 21.0 16.0 0 1018.00 73 4.8 SE
07:30 - 16/09 20.9 15.7 0 1018.00 72 6.4 ESE
07:15 - 16/09 20.7 15.2 0 1018.00 71 6.4 ESE
07:00 - 16/09 20.6 14.9 0 1017.80 70 0 --
06:45 - 16/09 20.7 15.0 0 1017.90 70 0 --
06:30 - 16/09 20.7 14.8 0 1017.90 69 3.2 SE
06:15 - 16/09 20.9 14.8 0 1017.80 68 3.2 SE
06:00 - 16/09 21.0 14.9 0 1017.80 68 0 --
05:45 - 16/09 20.7 14.8 0 1017.80 69 0 --
05:30 - 16/09 20.3 14.6 0 1017.80 70 0 --
05:15 - 16/09 20.2 14.3 0 1017.80 69 0 --
05:00 - 16/09 20.3 14.2 0 1018.00 68 0 --
04:45 - 16/09 20.2 14.3 0 1018.10 69 0 --
04:30 - 16/09 20.3 14.0 0 1018.20 67 1.6 ESE


   In caso di mancato funzionamento di qualche risorsa, vi preghiamo di segnalarcelo alla pagina Contatti.
© 2019 Osservatorio Meteo OMTeA
Sito di informazione su Meteo, Tempo in atto e Clima in Italia